sensor_id;sensor_type;location;lat;lon;timestamp;pressure;altitude;pressure_sealevel;temperature;humidity
22964;BME280;11648;49.306;6.934;2023-04-07T00:01:24;98361.63;;;12.38;71.02
22964;BME280;11648;49.306;6.934;2023-04-07T00:03:51;98366.78;;;12.43;70.57
22964;BME280;11648;49.306;6.934;2023-04-07T00:06:18;98360.47;;;12.50;70.78
22964;BME280;11648;49.306;6.934;2023-04-07T00:08:45;98360.69;;;12.41;70.30
22964;BME280;11648;49.306;6.934;2023-04-07T00:11:11;98352.53;;;12.53;70.45
22964;BME280;11648;49.306;6.934;2023-04-07T00:13:38;98341.16;;;12.50;70.44
22964;BME280;11648;49.306;6.934;2023-04-07T00:16:05;98347.19;;;12.55;70.46
22964;BME280;11648;49.306;6.934;2023-04-07T00:18:32;98347.09;;;12.61;70.08
22964;BME280;11648;49.306;6.934;2023-04-07T00:20:59;98345.50;;;12.52;69.84
22964;BME280;11648;49.306;6.934;2023-04-07T00:23:25;98345.50;;;12.52;70.32
22964;BME280;11648;49.306;6.934;2023-04-07T00:25:52;98344.59;;;12.53;69.98
22964;BME280;11648;49.306;6.934;2023-04-07T00:28:19;98348.88;;;12.59;70.44
22964;BME280;11648;49.306;6.934;2023-04-07T00:30:46;98339.91;;;12.66;69.88
22964;BME280;11648;49.306;6.934;2023-04-07T00:33:13;98335.09;;;12.45;69.87
22964;BME280;11648;49.306;6.934;2023-04-07T00:35:40;98342.00;;;12.50;70.02
22964;BME280;11648;49.306;6.934;2023-04-07T00:38:06;98336.94;;;12.39;69.61
22964;BME280;11648;49.306;6.934;2023-04-07T00:40:33;98329.88;;;12.40;69.76
22964;BME280;11648;49.306;6.934;2023-04-07T00:43:00;98324.81;;;12.29;69.46
22964;BME280;11648;49.306;6.934;2023-04-07T00:45:27;98320.78;;;12.12;70.33
22964;BME280;11648;49.306;6.934;2023-04-07T00:47:56;98320.03;;;12.05;70.46
22964;BME280;11648;49.306;6.934;2023-04-07T00:50:23;98320.13;;;12.01;70.43
22964;BME280;11648;49.306;6.934;2023-04-07T00:52:50;98314.09;;;11.93;70.00
22964;BME280;11648;49.306;6.934;2023-04-07T00:55:17;98309.06;;;11.80;70.52
22964;BME280;11648;49.306;6.934;2023-04-07T00:57:43;98311.78;;;11.76;70.34
22964;BME280;11648;49.306;6.934;2023-04-07T01:00:12;98307.44;;;11.73;70.22
22964;BME280;11648;49.306;6.934;2023-04-07T01:02:44;98308.38;;;11.69;70.24
22964;BME280;11648;49.306;6.934;2023-04-07T01:05:15;98304.91;;;11.66;69.40
22964;BME280;11648;49.306;6.934;2023-04-07T01:08:25;98305.16;;;11.52;69.34
22964;BME280;11648;49.306;6.934;2023-04-07T01:10:59;98308.97;;;11.34;70.41
22964;BME280;11648;49.306;6.934;2023-04-07T01:13:33;98308.91;;;11.37;70.45
22964;BME280;11648;49.306;6.934;2023-04-07T01:16:15;98308.06;;;11.35;70.73
22964;BME280;11648;49.306;6.934;2023-04-07T01:18:51;98308.88;;;11.39;71.28
22964;BME280;11648;49.306;6.934;2023-04-07T01:21:21;98304.53;;;11.36;71.27
22964;BME280;11648;49.306;6.934;2023-04-07T01:26:32;98299.25;;;11.38;71.34
22964;BME280;11648;49.306;6.934;2023-04-07T01:31:45;98293.16;;;11.34;70.53
22964;BME280;11648;49.306;6.934;2023-04-07T01:34:15;98291.53;;;11.26;70.78
22964;BME280;11648;49.306;6.934;2023-04-07T01:36:44;98287.94;;;11.31;70.87
22964;BME280;11648;49.306;6.934;2023-04-07T01:39:12;98284.56;;;11.23;70.97
22964;BME280;11648;49.306;6.934;2023-04-07T01:41:40;98284.00;;;11.03;71.23
22964;BME280;11648;49.306;6.934;2023-04-07T01:44:08;98278.59;;;11.11;71.26
22964;BME280;11648;49.306;6.934;2023-04-07T01:46:35;98279.63;;;11.02;71.08
22964;BME280;11648;49.306;6.934;2023-04-07T01:49:02;98275.31;;;10.97;71.16
22964;BME280;11648;49.306;6.934;2023-04-07T01:51:31;98273.56;;;10.99;71.73
22964;BME280;11648;49.306;6.934;2023-04-07T01:54:00;98271.91;;;10.92;71.61
22964;BME280;11648;49.306;6.934;2023-04-07T01:56:27;98272.91;;;10.81;72.00
22964;BME280;11648;49.306;6.934;2023-04-07T01:58:56;98267.13;;;10.58;72.07
22964;BME280;11648;49.306;6.934;2023-04-07T02:01:24;98263.31;;;10.79;71.76
22964;BME280;11648;49.306;6.934;2023-04-07T02:04:11;98270.53;;;10.66;72.01
22964;BME280;11648;49.306;6.934;2023-04-07T02:06:43;98271.91;;;10.92;71.03
22964;BME280;11648;49.306;6.934;2023-04-07T02:09:19;98266.59;;;10.95;71.01
22964;BME280;11648;49.306;6.934;2023-04-07T02:11:48;98272.50;;;11.09;69.84
22964;BME280;11648;49.306;6.934;2023-04-07T02:14:17;98279.53;;;11.08;69.61
22964;BME280;11648;49.306;6.934;2023-04-07T02:17:07;98268.28;;;10.99;69.09
22964;BME280;11648;49.306;6.934;2023-04-07T02:19:35;98267.81;;;10.71;70.46
22964;BME280;11648;49.306;6.934;2023-04-07T02:22:03;98261.91;;;10.55;72.22
22964;BME280;11648;49.306;6.934;2023-04-07T02:24:30;98261.09;;;10.50;72.33
22964;BME280;11648;49.306;6.934;2023-04-07T02:26:57;98258.66;;;10.35;72.30
22964;BME280;11648;49.306;6.934;2023-04-07T02:29:26;98253.44;;;10.32;72.22
22964;BME280;11648;49.306;6.934;2023-04-07T02:31:54;98257.97;;;10.22;72.86
22964;BME280;11648;49.306;6.934;2023-04-07T02:34:21;98258.13;;;10.07;73.65
22964;BME280;11648;49.306;6.934;2023-04-07T02:36:48;98259.81;;;10.10;74.15
22964;BME280;11648;49.306;6.934;2023-04-07T02:39:15;98259.72;;;10.22;74.42
22964;BME280;11648;49.306;6.934;2023-04-07T02:41:42;98257.72;;;10.40;73.78
22964;BME280;11648;49.306;6.934;2023-04-07T02:44:12;98259.22;;;10.58;70.71
22964;BME280;11648;49.306;6.934;2023-04-07T02:46:38;98262.00;;;10.46;70.17
22964;BME280;11648;49.306;6.934;2023-04-07T02:49:06;98261.50;;;10.20;70.76
22964;BME280;11648;49.306;6.934;2023-04-07T02:51:33;98264.97;;;10.22;71.24
22964;BME280;11648;49.306;6.934;2023-04-07T02:54:00;98270.19;;;10.25;71.28
22964;BME280;11648;49.306;6.934;2023-04-07T02:56:27;98276.34;;;10.24;71.30
22964;BME280;11648;49.306;6.934;2023-04-07T02:58:53;98273.94;;;10.03;72.02
22964;BME280;11648;49.306;6.934;2023-04-07T03:01:21;98272.97;;;10.11;72.30
22964;BME280;11648;49.306;6.934;2023-04-07T03:03:47;98269.47;;;10.11;73.32
22964;BME280;11648;49.306;6.934;2023-04-07T03:06:19;98274.44;;;10.38;72.88
22964;BME280;11648;49.306;6.934;2023-04-07T03:09:03;98271.56;;;10.53;72.56
22964;BME280;11648;49.306;6.934;2023-04-07T03:11:32;98272.28;;;10.64;71.96
22964;BME280;11648;49.306;6.934;2023-04-07T03:13:59;98269.94;;;10.45;71.56
22964;BME280;11648;49.306;6.934;2023-04-07T03:16:28;98276.88;;;10.52;71.47
22964;BME280;11648;49.306;6.934;2023-04-07T03:19:04;98270.69;;;10.56;71.13
22964;BME280;11648;49.306;6.934;2023-04-07T03:21:36;98266.16;;;10.64;71.30
22964;BME280;11648;49.306;6.934;2023-04-07T03:24:04;98261.91;;;10.55;71.84
22964;BME280;11648;49.306;6.934;2023-04-07T03:26:31;98268.19;;;10.45;72.19
22964;BME280;11648;49.306;6.934;2023-04-07T03:28:59;98264.69;;;10.43;72.57
22964;BME280;11648;49.306;6.934;2023-04-07T03:31:27;98266.44;;;10.44;72.62
22964;BME280;11648;49.306;6.934;2023-04-07T03:33:56;98268.28;;;10.37;73.27
22964;BME280;11648;49.306;6.934;2023-04-07T03:36:23;98269.03;;;10.46;73.75
22964;BME280;11648;49.306;6.934;2023-04-07T03:38:50;98268.09;;;10.51;73.47
22964;BME280;11648;49.306;6.934;2023-04-07T03:41:17;98270.00;;;10.38;74.59
22964;BME280;11648;49.306;6.934;2023-04-07T03:43:46;98272.50;;;10.49;74.02
22964;BME280;11648;49.306;6.934;2023-04-07T03:46:13;98268.09;;;10.50;74.12
22964;BME280;11648;49.306;6.934;2023-04-07T03:48:41;98274.97;;;10.60;74.27
22964;BME280;11648;49.306;6.934;2023-04-07T03:51:09;98270.44;;;10.72;74.18
22964;BME280;11648;49.306;6.934;2023-04-07T03:53:37;98271.25;;;10.77;73.60
22964;BME280;11648;49.306;6.934;2023-04-07T03:56:16;98272.78;;;10.90;73.32
22964;BME280;11648;49.306;6.934;2023-04-07T03:58:49;98269.03;;;11.05;71.89
22964;BME280;11648;49.306;6.934;2023-04-07T04:01:24;98270.88;;;11.02;70.33
22964;BME280;11648;49.306;6.934;2023-04-07T04:03:52;98275.53;;;10.84;69.64
22964;BME280;11648;49.306;6.934;2023-04-07T04:06:28;98274.75;;;10.76;70.23
22964;BME280;11648;49.306;6.934;2023-04-07T04:09:03;98268.63;;;10.74;70.72
22964;BME280;11648;49.306;6.934;2023-04-07T04:11:33;98271.34;;;10.70;71.71
22964;BME280;11648;49.306;6.934;2023-04-07T04:14:03;98263.41;;;10.71;71.24
22964;BME280;11648;49.306;6.934;2023-04-07T04:16:31;98258.25;;;10.65;71.46
22964;BME280;11648;49.306;6.934;2023-04-07T04:19:02;98260.97;;;10.59;71.24
22964;BME280;11648;49.306;6.934;2023-04-07T04:21:30;98263.63;;;10.56;71.94
22964;BME280;11648;49.306;6.934;2023-04-07T04:23:56;98262.78;;;10.54;72.34
22964;BME280;11648;49.306;6.934;2023-04-07T04:26:25;98261.13;;;10.46;73.20
22964;BME280;11648;49.306;6.934;2023-04-07T04:28:56;98260.16;;;10.56;72.62
22964;BME280;11648;49.306;6.934;2023-04-07T04:31:23;98261.84;;;10.58;72.22
22964;BME280;11648;49.306;6.934;2023-04-07T04:33:50;98254.22;;;10.42;70.13
22964;BME280;11648;49.306;6.934;2023-04-07T04:36:18;98267.66;;;10.17;70.72
22964;BME280;11648;49.306;6.934;2023-04-07T04:38:45;98273.84;;;10.16;72.58
22964;BME280;11648;49.306;6.934;2023-04-07T04:41:15;98272.09;;;10.11;76.09
22964;BME280;11648;49.306;6.934;2023-04-07T04:43:42;98271.13;;;10.21;76.74
22964;BME280;11648;49.306;6.934;2023-04-07T04:46:13;98271.06;;;10.24;76.72
22964;BME280;11648;49.306;6.934;2023-04-07T04:48:42;98269.25;;;10.30;76.48
22964;BME280;11648;49.306;6.934;2023-04-07T04:51:08;98259.56;;;10.34;76.37
22964;BME280;11648;49.306;6.934;2023-04-07T04:53:37;98272.53;;;10.46;76.54
22964;BME280;11648;49.306;6.934;2023-04-07T04:56:06;98264.78;;;10.35;77.28
22964;BME280;11648;49.306;6.934;2023-04-07T04:58:40;98269.16;;;10.38;77.06
22964;BME280;11648;49.306;6.934;2023-04-07T05:01:17;98271.75;;;10.41;77.10
22964;BME280;11648;49.306;6.934;2023-04-07T05:03:52;98269.03;;;10.47;77.20
22964;BME280;11648;49.306;6.934;2023-04-07T05:06:23;98269.91;;;10.48;77.31
22964;BME280;11648;49.306;6.934;2023-04-07T05:08:51;98262.78;;;10.56;76.26
22964;BME280;11648;49.306;6.934;2023-04-07T05:11:22;98262.13;;;10.38;77.75
22964;BME280;11648;49.306;6.934;2023-04-07T05:13:51;98263.63;;;10.56;77.14
22964;BME280;11648;49.306;6.934;2023-04-07T05:16:19;98265.28;;;10.63;77.48
22964;BME280;11648;49.306;6.934;2023-04-07T05:18:46;98265.47;;;10.51;77.47
22964;BME280;11648;49.306;6.934;2023-04-07T05:21:13;98266.09;;;10.70;77.47
22964;BME280;11648;49.306;6.934;2023-04-07T05:23:40;98260.84;;;10.68;76.86
22964;BME280;11648;49.306;6.934;2023-04-07T05:26:09;98259.84;;;10.75;77.07
22964;BME280;11648;49.306;6.934;2023-04-07T05:28:36;98255.41;;;10.79;77.26
22964;BME280;11648;49.306;6.934;2023-04-07T05:31:08;98260.63;;;10.82;77.09
22964;BME280;11648;49.306;6.934;2023-04-07T05:33:35;98254.88;;;11.12;76.37
22964;BME280;11648;49.306;6.934;2023-04-07T05:36:02;98254.31;;;11.46;74.25
22964;BME280;11648;49.306;6.934;2023-04-07T05:38:32;98250.81;;;11.44;71.93
22964;BME280;11648;49.306;6.934;2023-04-07T05:41:06;98249.19;;;11.36;70.82
22964;BME280;11648;49.306;6.934;2023-04-07T05:43:35;98250.94;;;11.36;70.81
22964;BME280;11648;49.306;6.934;2023-04-07T05:46:02;98252.50;;;11.48;70.53
22964;BME280;11648;49.306;6.934;2023-04-07T05:48:29;98255.00;;;11.55;70.09
22964;BME280;11648;49.306;6.934;2023-04-07T05:50:57;98261.16;;;11.54;69.75
22964;BME280;11648;49.306;6.934;2023-04-07T05:53:24;98256.84;;;11.52;69.71
22964;BME280;11648;49.306;6.934;2023-04-07T05:55:51;98257.75;;;11.49;69.44
22964;BME280;11648;49.306;6.934;2023-04-07T05:58:24;98263.13;;;11.45;70.03
22964;BME280;11648;49.306;6.934;2023-04-07T06:00:53;98270.16;;;11.43;69.48
22964;BME280;11648;49.306;6.934;2023-04-07T06:03:20;98274.47;;;11.47;69.80
22964;BME280;11648;49.306;6.934;2023-04-07T06:05:56;98278.03;;;11.46;69.96
22964;BME280;11648;49.306;6.934;2023-04-07T06:08:24;98275.41;;;11.46;70.22
22964;BME280;11648;49.306;6.934;2023-04-07T06:10:51;98282.34;;;11.50;69.82
22964;BME280;11648;49.306;6.934;2023-04-07T06:13:18;98277.91;;;11.52;69.95
22964;BME280;11648;49.306;6.934;2023-04-07T06:15:45;98281.44;;;11.52;69.97
22964;BME280;11648;49.306;6.934;2023-04-07T06:18:12;98280.34;;;11.64;70.29
22964;BME280;11648;49.306;6.934;2023-04-07T06:20:39;98277.88;;;11.55;70.35
22964;BME280;11648;49.306;6.934;2023-04-07T06:23:06;98278.06;;;11.44;71.25
22964;BME280;11648;49.306;6.934;2023-04-07T06:25:32;98285.13;;;11.42;71.67
22964;BME280;11648;49.306;6.934;2023-04-07T06:27:59;98277.09;;;11.48;72.03
22964;BME280;11648;49.306;6.934;2023-04-07T06:30:26;98284.91;;;11.54;71.37
22964;BME280;11648;49.306;6.934;2023-04-07T06:32:53;98281.16;;;11.67;71.34
22964;BME280;11648;49.306;6.934;2023-04-07T06:35:20;98281.75;;;11.83;71.16
22964;BME280;11648;49.306;6.934;2023-04-07T06:37:47;98285.81;;;12.01;71.04
22964;BME280;11648;49.306;6.934;2023-04-07T06:40:14;98279.84;;;11.91;70.74
22964;BME280;11648;49.306;6.934;2023-04-07T06:42:41;98289.69;;;12.27;71.35
22964;BME280;11648;49.306;6.934;2023-04-07T06:45:18;98294.06;;;14.11;67.76
22964;BME280;11648;49.306;6.934;2023-04-07T06:47:45;98284.69;;;14.91;62.39
22964;BME280;11648;49.306;6.934;2023-04-07T06:50:12;98286.81;;;15.07;60.67
22964;BME280;11648;49.306;6.934;2023-04-07T06:52:39;98295.44;;;14.86;61.15
22964;BME280;11648;49.306;6.934;2023-04-07T06:55:06;98291.81;;;14.89;61.86
22964;BME280;11648;49.306;6.934;2023-04-07T06:57:33;98294.03;;;14.73;62.45
22964;BME280;11648;49.306;6.934;2023-04-07T07:00:00;98295.34;;;14.60;62.41
22964;BME280;11648;49.306;6.934;2023-04-07T07:02:26;98308.31;;;14.40;63.98
22964;BME280;11648;49.306;6.934;2023-04-07T07:04:53;98304.47;;;14.17;63.99
22964;BME280;11648;49.306;6.934;2023-04-07T07:07:20;98310.38;;;13.96;65.03
22964;BME280;11648;49.306;6.934;2023-04-07T07:09:47;98320.66;;;13.74;65.54
22964;BME280;11648;49.306;6.934;2023-04-07T07:12:14;98313.34;;;13.50;65.91
22964;BME280;11648;49.306;6.934;2023-04-07T07:14:42;98319.81;;;13.37;66.37
22964;BME280;11648;49.306;6.934;2023-04-07T07:17:09;98318.16;;;13.33;67.32
22964;BME280;11648;49.306;6.934;2023-04-07T07:19:36;98316.22;;;13.01;67.08
22964;BME280;11648;49.306;6.934;2023-04-07T07:22:03;98314.06;;;12.81;68.43
22964;BME280;11648;49.306;6.934;2023-04-07T07:24:30;98313.13;;;12.82;68.25
22964;BME280;11648;49.306;6.934;2023-04-07T07:26:59;98317.50;;;12.85;69.12
22964;BME280;11648;49.306;6.934;2023-04-07T07:29:28;98316.53;;;12.89;69.93
22964;BME280;11648;49.306;6.934;2023-04-07T07:31:55;98319.34;;;12.81;69.78
22964;BME280;11648;49.306;6.934;2023-04-07T07:34:21;98319.59;;;13.08;69.08
22964;BME280;11648;49.306;6.934;2023-04-07T07:36:48;98319.19;;;13.26;68.97
22964;BME280;11648;49.306;6.934;2023-04-07T07:39:15;98329.59;;;13.33;68.72
22964;BME280;11648;49.306;6.934;2023-04-07T07:41:42;98325.59;;;13.53;69.29
22964;BME280;11648;49.306;6.934;2023-04-07T07:44:08;98329.66;;;13.66;67.84
22964;BME280;11648;49.306;6.934;2023-04-07T07:46:35;98331.84;;;13.84;68.20
22964;BME280;11648;49.306;6.934;2023-04-07T07:49:02;98324.97;;;13.77;67.02
22964;BME280;11648;49.306;6.934;2023-04-07T07:51:31;98332.72;;;13.84;67.27
22964;BME280;11648;49.306;6.934;2023-04-07T07:53:58;98344.81;;;13.95;66.41
22964;BME280;11648;49.306;6.934;2023-04-07T07:56:24;98337.72;;;14.27;66.87
22964;BME280;11648;49.306;6.934;2023-04-07T07:58:51;98332.72;;;14.18;66.46
22964;BME280;11648;49.306;6.934;2023-04-07T08:01:18;98336.72;;;13.67;67.21
22964;BME280;11648;49.306;6.934;2023-04-07T08:03:45;98328.25;;;14.19;66.30
22964;BME280;11648;49.306;6.934;2023-04-07T08:06:12;98333.31;;;14.60;65.31
22964;BME280;11648;49.306;6.934;2023-04-07T08:08:39;98336.50;;;15.28;64.47
22964;BME280;11648;49.306;6.934;2023-04-07T08:11:06;98336.41;;;15.59;63.24
22964;BME280;11648;49.306;6.934;2023-04-07T08:13:33;98348.44;;;15.42;62.04
22964;BME280;11648;49.306;6.934;2023-04-07T08:16:00;98345.28;;;15.30;62.44
22964;BME280;11648;49.306;6.934;2023-04-07T08:18:27;98354.53;;;15.17;63.23
22964;BME280;11648;49.306;6.934;2023-04-07T08:20:53;98351.63;;;14.97;62.69
22964;BME280;11648;49.306;6.934;2023-04-07T08:23:21;98357.59;;;15.33;62.76
22964;BME280;11648;49.306;6.934;2023-04-07T08:25:47;98360.06;;;14.80;64.80
22964;BME280;11648;49.306;6.934;2023-04-07T08:28:14;98363.41;;;15.16;64.21
22964;BME280;11648;49.306;6.934;2023-04-07T08:30:41;98359.50;;;15.00;64.37
22964;BME280;11648;49.306;6.934;2023-04-07T08:33:08;98354.28;;;15.26;62.86
22964;BME280;11648;49.306;6.934;2023-04-07T08:35:35;98363.78;;;15.04;63.22
22964;BME280;11648;49.306;6.934;2023-04-07T08:38:01;98364.16;;;15.49;62.25
22964;BME280;11648;49.306;6.934;2023-04-07T08:40:29;98362.19;;;15.56;62.14
22964;BME280;11648;49.306;6.934;2023-04-07T08:42:58;98377.09;;;15.60;62.26
22964;BME280;11648;49.306;6.934;2023-04-07T08:45:26;98369.72;;;15.69;61.31
22964;BME280;11648;49.306;6.934;2023-04-07T08:47:55;98371.75;;;15.88;60.92
22964;BME280;11648;49.306;6.934;2023-04-07T08:50:25;98369.59;;;15.99;60.75
22964;BME280;11648;49.306;6.934;2023-04-07T08:52:54;98373.28;;;15.95;60.67
22964;BME280;11648;49.306;6.934;2023-04-07T08:55:22;98376.59;;;15.75;61.32
22964;BME280;11648;49.306;6.934;2023-04-07T08:57:50;98372.28;;;15.43;62.28
22964;BME280;11648;49.306;6.934;2023-04-07T09:00:17;98383.72;;;15.17;61.97
22964;BME280;11648;49.306;6.934;2023-04-07T09:02:44;98378.78;;;15.62;62.08
22964;BME280;11648;49.306;6.934;2023-04-07T09:05:14;98384.50;;;15.49;61.41
22964;BME280;11648;49.306;6.934;2023-04-07T09:07:41;98381.38;;;15.64;61.07
22964;BME280;11648;49.306;6.934;2023-04-07T09:10:11;98381.44;;;15.62;61.71
22964;BME280;11648;49.306;6.934;2023-04-07T09:12:38;98383.41;;;15.84;62.44
22964;BME280;11648;49.306;6.934;2023-04-07T09:15:06;98383.66;;;15.76;61.74
22964;BME280;11648;49.306;6.934;2023-04-07T09:17:33;98387.34;;;15.70;61.22
22964;BME280;11648;49.306;6.934;2023-04-07T09:20:00;98393.94;;;15.59;61.70
22964;BME280;11648;49.306;6.934;2023-04-07T09:25:12;98395.88;;;15.54;61.54
22964;BME280;11648;49.306;6.934;2023-04-07T09:27:39;98384.44;;;15.78;60.13
22964;BME280;11648;49.306;6.934;2023-04-07T09:30:11;98390.78;;;15.45;60.32
22964;BME280;11648;49.306;6.934;2023-04-07T09:32:38;98401.59;;;15.68;61.47
22964;BME280;11648;49.306;6.934;2023-04-07T09:35:07;98393.47;;;15.99;59.60
22964;BME280;11648;49.306;6.934;2023-04-07T09:37:34;98390.97;;;16.20;59.85
22964;BME280;11648;49.306;6.934;2023-04-07T09:40:01;98391.53;;;16.30;58.94
22964;BME280;11648;49.306;6.934;2023-04-07T09:42:28;98392.34;;;16.06;59.89
22964;BME280;11648;49.306;6.934;2023-04-07T09:44:59;98390.16;;;16.18;58.88
22964;BME280;11648;49.306;6.934;2023-04-07T09:47:27;98393.47;;;16.25;58.35
22964;BME280;11648;49.306;6.934;2023-04-07T09:49:55;98394.34;;;16.25;59.06
22964;BME280;11648;49.306;6.934;2023-04-07T09:52:28;98390.69;;;16.53;57.64
22964;BME280;11648;49.306;6.934;2023-04-07T09:55:12;98386.22;;;16.79;57.20
22964;BME280;11648;49.306;6.934;2023-04-07T09:57:40;98390.41;;;16.62;58.06
22964;BME280;11648;49.306;6.934;2023-04-07T10:00:08;98398.75;;;16.00;59.10
22964;BME280;11648;49.306;6.934;2023-04-07T10:02:38;98396.72;;;16.33;58.24
22964;BME280;11648;49.306;6.934;2023-04-07T10:05:06;98397.63;;;16.07;58.27
22964;BME280;11648;49.306;6.934;2023-04-07T10:07:34;98399.97;;;16.16;58.22
22964;BME280;11648;49.306;6.934;2023-04-07T10:10:05;98402.16;;;16.30;58.14
22964;BME280;11648;49.306;6.934;2023-04-07T10:12:38;98407.28;;;15.84;59.36
22964;BME280;11648;49.306;6.934;2023-04-07T10:15:07;98399.25;;;15.59;59.04
22964;BME280;11648;49.306;6.934;2023-04-07T10:17:35;98396.66;;;15.84;58.63
22964;BME280;11648;49.306;6.934;2023-04-07T10:20:03;98396.69;;;15.82;58.14
22964;BME280;11648;49.306;6.934;2023-04-07T10:22:32;98408.72;;;15.94;58.44
22964;BME280;11648;49.306;6.934;2023-04-07T10:25:07;98406.47;;;15.54;59.91
22964;BME280;11648;49.306;6.934;2023-04-07T10:27:43;98412.56;;;15.28;61.14
22964;BME280;11648;49.306;6.934;2023-04-07T10:30:29;98419.38;;;15.37;61.51
22964;BME280;11648;49.306;6.934;2023-04-07T10:32:57;98414.06;;;15.37;61.14
22964;BME280;11648;49.306;6.934;2023-04-07T10:35:25;98417.94;;;14.96;62.07
22964;BME280;11648;49.306;6.934;2023-04-07T10:40:36;98421.03;;;15.11;62.74
22964;BME280;11648;49.306;6.934;2023-04-07T10:43:04;98422.59;;;15.17;62.33
22964;BME280;11648;49.306;6.934;2023-04-07T10:48:21;98426.53;;;15.04;62.43
22964;BME280;11648;49.306;6.934;2023-04-07T10:51:12;98426.16;;;14.87;61.82
22964;BME280;11648;49.306;6.934;2023-04-07T10:54:15;98421.59;;;14.92;63.11
22964;BME280;11648;49.306;6.934;2023-04-07T10:59:29;98425.00;;;14.97;62.84
22964;BME280;11648;49.306;6.934;2023-04-07T11:04:39;98433.66;;;15.02;63.53
22964;BME280;11648;49.306;6.934;2023-04-07T11:07:07;98427.56;;;14.98;64.10
22964;BME280;11648;49.306;6.934;2023-04-07T11:09:34;98428.50;;;14.97;64.53
22964;BME280;11648;49.306;6.934;2023-04-07T11:12:00;98429.59;;;14.90;64.48
22964;BME280;11648;49.306;6.934;2023-04-07T11:14:29;98427.47;;;14.72;62.99
22964;BME280;11648;49.306;6.934;2023-04-07T11:16:56;98419.25;;;14.81;63.85
22964;BME280;11648;49.306;6.934;2023-04-07T11:19:24;98436.47;;;14.97;64.57
22964;BME280;11648;49.306;6.934;2023-04-07T11:22:14;98425.00;;;14.97;64.11
22964;BME280;11648;49.306;6.934;2023-04-07T11:24:55;98429.53;;;15.22;64.32
22964;BME280;11648;49.306;6.934;2023-04-07T11:27:22;98428.56;;;15.54;63.60
22964;BME280;11648;49.306;6.934;2023-04-07T11:29:49;98420.84;;;15.74;60.56
22964;BME280;11648;49.306;6.934;2023-04-07T11:32:21;98423.22;;;15.84;60.58
22964;BME280;11648;49.306;6.934;2023-04-07T11:34:51;98425.25;;;16.02;59.71
22964;BME280;11648;49.306;6.934;2023-04-07T11:37:19;98425.13;;;16.31;59.66
22964;BME280;11648;49.306;6.934;2023-04-07T11:42:36;98425.47;;;16.47;58.30
22964;BME280;11648;49.306;6.934;2023-04-07T11:45:04;98412.59;;;16.61;57.68
22964;BME280;11648;49.306;6.934;2023-04-07T11:47:38;98414.66;;;17.01;56.48
22964;BME280;11648;49.306;6.934;2023-04-07T11:50:06;98407.53;;;17.24;55.65
22964;BME280;11648;49.306;6.934;2023-04-07T11:52:53;98414.88;;;17.64;56.32
22964;BME280;11648;49.306;6.934;2023-04-07T11:55:21;98415.69;;;17.66;55.06
22964;BME280;11648;49.306;6.934;2023-04-07T11:57:50;98404.91;;;17.69;53.41
22964;BME280;11648;49.306;6.934;2023-04-07T12:00:18;98401.38;;;17.91;52.69
22964;BME280;11648;49.306;6.934;2023-04-07T12:02:45;98396.59;;;17.99;52.81
22964;BME280;11648;49.306;6.934;2023-04-07T12:05:13;98409.34;;;18.12;53.52
22964;BME280;11648;49.306;6.934;2023-04-07T12:07:51;98399.09;;;18.23;52.78
22964;BME280;11648;49.306;6.934;2023-04-07T12:10:23;98399.00;;;18.25;51.35
22964;BME280;11648;49.306;6.934;2023-04-07T12:12:53;98399.41;;;18.16;50.68
22964;BME280;11648;49.306;6.934;2023-04-07T12:15:20;98389.63;;;18.16;49.28
22964;BME280;11648;49.306;6.934;2023-04-07T12:17:47;98393.41;;;18.11;50.25
22964;BME280;11648;49.306;6.934;2023-04-07T12:20:14;98385.44;;;18.31;48.44
22964;BME280;11648;49.306;6.934;2023-04-07T12:22:41;98382.66;;;18.54;48.18
22964;BME280;11648;49.306;6.934;2023-04-07T12:25:08;98381.56;;;19.17;46.88
22964;BME280;11648;49.306;6.934;2023-04-07T12:27:35;98375.06;;;19.79;45.37
22964;BME280;11648;49.306;6.934;2023-04-07T12:30:10;98357.19;;;20.33;42.91
22964;BME280;11648;49.306;6.934;2023-04-07T12:32:37;98353.56;;;20.51;41.62
22964;BME280;11648;49.306;6.934;2023-04-07T12:35:04;98353.81;;;20.46;41.77
22964;BME280;11648;49.306;6.934;2023-04-07T12:37:32;98351.19;;;20.45;41.34
22964;BME280;11648;49.306;6.934;2023-04-07T12:39:59;98364.19;;;20.35;42.23
22964;BME280;11648;49.306;6.934;2023-04-07T12:42:26;98359.50;;;20.73;40.77
22964;BME280;11648;49.306;6.934;2023-04-07T12:44:53;98355.41;;;20.83;41.39
22964;BME280;11648;49.306;6.934;2023-04-07T12:47:20;98354.09;;;20.57;40.80
22964;BME280;11648;49.306;6.934;2023-04-07T12:49:48;98354.59;;;20.81;41.56
22964;BME280;11648;49.306;6.934;2023-04-07T12:52:16;98349.44;;;21.42;40.18
22964;BME280;11648;49.306;6.934;2023-04-07T12:54:43;98352.03;;;21.59;40.12
22964;BME280;11648;49.306;6.934;2023-04-07T12:57:11;98346.97;;;21.85;38.97
22964;BME280;11648;49.306;6.934;2023-04-07T12:59:37;98339.03;;;22.29;39.05
22964;BME280;11648;49.306;6.934;2023-04-07T13:02:05;98350.97;;;21.78;39.42
22964;BME280;11648;49.306;6.934;2023-04-07T13:04:32;98352.53;;;21.82;39.70
22964;BME280;11648;49.306;6.934;2023-04-07T13:07:00;98348.31;;;21.46;38.80
22964;BME280;11648;49.306;6.934;2023-04-07T13:09:28;98348.16;;;21.18;40.39
22964;BME280;11648;49.306;6.934;2023-04-07T13:11:55;98353.34;;;21.68;39.89
22964;BME280;11648;49.306;6.934;2023-04-07T13:14:23;98351.19;;;21.43;39.72
22964;BME280;11648;49.306;6.934;2023-04-07T13:16:51;98357.47;;;21.27;40.55
22964;BME280;11648;49.306;6.934;2023-04-07T13:19:18;98350.50;;;21.07;40.21
22964;BME280;11648;49.306;6.934;2023-04-07T13:21:45;98362.56;;;20.65;41.41
22964;BME280;11648;49.306;6.934;2023-04-07T13:24:14;98363.84;;;20.41;41.47
22964;BME280;11648;49.306;6.934;2023-04-07T13:26:41;98355.94;;;20.40;41.52
22964;BME280;11648;49.306;6.934;2023-04-07T13:29:07;98366.06;;;20.33;42.33
22964;BME280;11648;49.306;6.934;2023-04-07T13:31:34;98361.31;;;20.55;41.68